Higman Legacy — WDH5331 — position and weather

sailwx.info

Track history (hours):
 
Tides and Currents Weather Stations Pressure Air Temp Water Temp Dewpoint Dewpoint Depression Visibility Wind Speed Wind Dir Waves Ship Positions

Higman Legacy

Owner: Higman Barge Lines, Inc., Orange, TX. More information available from US FCC via Universal Licensing System and Coast Guard Vessel Documentation Center.

Last reported at 2018-Jul-02 11:31 UTC. Time now 2018-Jul-19 07:48 UTC.
Position N 32°49' W 091°09'.
Warning: this ship's position is 16 days out of date.

Length 35 m; draft 3 m.

Type: . MMSI: 367626880.

Date/timePositionNaut miles runAvg speedWind from/ knotsBaromVisibWave heightAir tempDewpointWater temp
2018-Jul-02 11:31N 32°49' W 091°09'1 5.4
2018-Jul-02 11:25N 32°48' W 091°09'2 5.6
2018-Jul-02 11:00N 32°46' W 091°10'6 3.5
2018-Jul-02 09:11N 32°41' W 091°06'1 6.5
2018-Jul-02 08:59N 32°40' W 091°07'3 5.1
2018-Jul-02 08:27N 32°38' W 091°09'3 6.1
2018-Jul-02 08:00N 32°36' W 091°08'3 5.4
2018-Jul-02 07:30N 32°34' W 091°06'2 4.2
2018-Jul-02 07:00N 32°31' W 091°06'2 4.3
2018-Jul-02 06:30N 32°29' W 091°07'1 2.0
2018-Jul-02 06:00N 32°28' W 091°07'2 3.6
2018-Jul-02 05:30N 32°27' W 091°05'3 5.6
2018-Jul-02 05:00N 32°26' W 091°02'3 5.4
2018-Jul-02 04:30N 32°24' W 090°60'3 5.7
2018-Jul-02 04:00N 32°22' W 091°00'3 5.9
2018-Jul-02 03:30N 32°21' W 090°57'3 5.5
2018-Jul-02 03:00N 32°19' W 090°54'2 4.3
2018-Jul-02 02:30N 32°18' W 090°56'2 4.9
2018-Jul-02 02:00N 32°16' W 090°58'2 4.8
2018-Jul-02 01:30N 32°14' W 090°59'3 5.2
2018-Jul-02 01:00N 32°11' W 090°60'2 4.8
2018-Jul-02 00:30N 32°09' W 091°00'2 4.3
2018-Jul-02 00:00N 32°07' W 091°02'3 4.9
2018-Jul-01 23:30N 32°08' W 091°05'2 4.0
2018-Jul-01 23:00N 32°07' W 091°06'3 6.7
2018-Jul-01 22:30N 32°04' W 091°04'3 5.3
2018-Jul-01 22:00N 32°02' W 091°04'37 4.7
2018-Jul-01 14:11N 31°32' W 091°29'1 5.0
2018-Jul-01 13:55N 31°31' W 091°31'2 5.4
2018-Jul-01 13:30N 31°29' W 091°31'3 5.1
2018-Jul-01 13:00N 31°26' W 091°31'2 5.1
2018-Jul-01 12:30N 31°24' W 091°29'2 4.6
2018-Jul-01 12:00N 31°22' W 091°28'  
2018-Jun-23 17:12N 31°53' W 091°13'4 9.5
2018-Jun-23 16:47N 31°57' W 091°12'3 8.9
2018-Jun-23 16:30N 31°59' W 091°10'4 9.1
2018-Jun-23 16:00N 32°00' W 091°05'6 8.5
2018-Jun-23 15:20N 32°06' W 091°06'2 5.9
2018-Jun-23 14:57N 32°08' W 091°04'4 8.1
2018-Jun-23 14:31N 32°09' W 091°00'5 9.8
2018-Jun-23 13:59N 32°14' W 090°59'5 9.6
2018-Jun-23 13:31N 32°18' W 090°56'3 6.5
2018-Jun-23 13:00N 32°21' W 090°56'4 8.2
2018-Jun-23 12:31N 32°23' W 091°00'4 8.0
2018-Jun-23 12:01N 32°26' W 091°02'5 9.8
2018-Jun-23 11:31N 32°29' W 091°07'5 9.6
2018-Jun-23 11:00N 32°34' W 091°06'5 9.7
2018-Jun-23 10:31N 32°38' W 091°09'  
Track history (hours):
 
Tides and Currents Weather Stations Pressure Air Temp Water Temp Dewpoint Dewpoint Depression Visibility Wind Speed Wind Dir Waves Ship Positions

Higman Legacy

Owner: Higman Barge Lines, Inc., Orange, TX. More information available from US FCC via Universal Licensing System and Coast Guard Vessel Documentation Center.

Last reported at 2018-Jul-02 11:31 UTC. Time now 2018-Jul-19 07:48 UTC.
Position N 32°49' W 091°09'.
Warning: this ship's position is 16 days out of date.

Length 35 m; draft 3 m.

Type: . MMSI: 367626880.

Date/timePositionNaut miles runAvg speedWind from/ knotsBaromVisibWave heightAir tempDewpointWater temp
2018-Jul-02 11:31N 32°49' W 091°09'1 5.4
2018-Jul-02 11:25N 32°48' W 091°09'2 5.6
2018-Jul-02 11:00N 32°46' W 091°10'6 3.5
2018-Jul-02 09:11N 32°41' W 091°06'1 6.5
2018-Jul-02 08:59N 32°40' W 091°07'3 5.1
2018-Jul-02 08:27N 32°38' W 091°09'3 6.1
2018-Jul-02 08:00N 32°36' W 091°08'3 5.4
2018-Jul-02 07:30N 32°34' W 091°06'2 4.2
2018-Jul-02 07:00N 32°31' W 091°06'2 4.3
2018-Jul-02 06:30N 32°29' W 091°07'1 2.0
2018-Jul-02 06:00N 32°28' W 091°07'2 3.6
2018-Jul-02 05:30N 32°27' W 091°05'3 5.6
2018-Jul-02 05:00N 32°26' W 091°02'3 5.4
2018-Jul-02 04:30N 32°24' W 090°60'3 5.7
2018-Jul-02 04:00N 32°22' W 091°00'3 5.9
2018-Jul-02 03:30N 32°21' W 090°57'3 5.5
2018-Jul-02 03:00N 32°19' W 090°54'2 4.3
2018-Jul-02 02:30N 32°18' W 090°56'2 4.9
2018-Jul-02 02:00N 32°16' W 090°58'2 4.8
2018-Jul-02 01:30N 32°14' W 090°59'3 5.2
2018-Jul-02 01:00N 32°11' W 090°60'2 4.8
2018-Jul-02 00:30N 32°09' W 091°00'2 4.3
2018-Jul-02 00:00N 32°07' W 091°02'3 4.9
2018-Jul-01 23:30N 32°08' W 091°05'2 4.0
2018-Jul-01 23:00N 32°07' W 091°06'3 6.7
2018-Jul-01 22:30N 32°04' W 091°04'3 5.3
2018-Jul-01 22:00N 32°02' W 091°04'37 4.7
2018-Jul-01 14:11N 31°32' W 091°29'1 5.0
2018-Jul-01 13:55N 31°31' W 091°31'2 5.4
2018-Jul-01 13:30N 31°29' W 091°31'3 5.1
2018-Jul-01 13:00N 31°26' W 091°31'2 5.1
2018-Jul-01 12:30N 31°24' W 091°29'2 4.6
2018-Jul-01 12:00N 31°22' W 091°28'  
2018-Jun-23 17:12N 31°53' W 091°13'4 9.5
2018-Jun-23 16:47N 31°57' W 091°12'3 8.9
2018-Jun-23 16:30N 31°59' W 091°10'4 9.1
2018-Jun-23 16:00N 32°00' W 091°05'6 8.5
2018-Jun-23 15:20N 32°06' W 091°06'2 5.9
2018-Jun-23 14:57N 32°08' W 091°04'4 8.1
2018-Jun-23 14:31N 32°09' W 091°00'5 9.8
2018-Jun-23 13:59N 32°14' W 090°59'5 9.6
2018-Jun-23 13:31N 32°18' W 090°56'3 6.5
2018-Jun-23 13:00N 32°21' W 090°56'4 8.2
2018-Jun-23 12:31N 32°23' W 091°00'4 8.0
2018-Jun-23 12:01N 32°26' W 091°02'5 9.8
2018-Jun-23 11:31N 32°29' W 091°07'5 9.6
2018-Jun-23 11:00N 32°34' W 091°06'5 9.7
2018-Jun-23 10:31N 32°38' W 091°09'  

Dump ship's entire track history